createdAt,value
2019-05-07T00:02:18.511Z,16.95
2019-05-07T00:04:47.115Z,15.20
2019-05-07T00:07:15.733Z,15.55
2019-05-07T00:09:44.317Z,17.20
2019-05-07T00:12:12.965Z,15.03
2019-05-07T00:14:42.903Z,16.55
2019-05-07T00:17:13.044Z,20.32
2019-05-07T00:19:43.250Z,14.45
2019-05-07T00:22:12.545Z,15.28
2019-05-07T00:24:42.651Z,14.80
2019-05-07T00:27:13.101Z,18.55
2019-05-07T00:29:42.952Z,17.07
2019-05-07T00:32:12.271Z,21.02
2019-05-07T00:34:42.666Z,17.00
2019-05-07T00:37:22.228Z,14.53
2019-05-07T00:40:08.398Z,15.28
2019-05-07T00:42:54.686Z,16.35
2019-05-07T00:45:27.549Z,13.62
2019-05-07T00:47:56.015Z,16.80
2019-05-07T00:50:29.159Z,13.83
2019-05-07T00:52:57.768Z,22.70
2019-05-07T00:55:26.401Z,14.40
2019-05-07T00:57:55.101Z,16.93
2019-05-07T01:00:23.779Z,17.00
2019-05-07T01:02:52.675Z,21.75
2019-05-07T01:05:23.101Z,25.12
2019-05-07T01:07:52.881Z,14.45
2019-05-07T01:10:22.362Z,17.65
2019-05-07T01:12:53.100Z,14.40
2019-05-07T01:15:31.178Z,16.57
2019-05-07T01:17:53.276Z,16.77
2019-05-07T01:20:22.203Z,17.00
2019-05-07T01:22:54.526Z,17.30
2019-05-07T01:25:22.842Z,17.82
2019-05-07T01:27:53.274Z,17.27
2019-05-07T01:30:23.092Z,15.83
2019-05-07T01:33:02.900Z,17.92
2019-05-07T01:35:33.210Z,17.07
2019-05-07T01:38:03.161Z,19.95
2019-05-07T01:40:32.436Z,16.23
2019-05-07T01:43:02.582Z,20.15
2019-05-07T01:45:43.214Z,23.65
2019-05-07T01:48:04.215Z,25.23
2019-05-07T01:50:32.323Z,19.48
2019-05-07T01:53:00.952Z,18.57
2019-05-07T01:55:29.427Z,15.13
2019-05-07T01:57:58.153Z,15.38
2019-05-07T02:00:26.826Z,18.77
2019-05-07T02:02:56.935Z,18.62
2019-05-07T02:05:43.494Z,18.67
2019-05-07T02:08:13.604Z,16.25
2019-05-07T02:11:02.247Z,17.45
2019-05-07T02:13:30.878Z,16.17
2019-05-07T02:16:01.863Z,15.40
2019-05-07T02:18:32.581Z,19.30
2019-05-07T02:21:03.273Z,14.68
2019-05-07T02:23:33.004Z,17.42
2019-05-07T02:26:02.555Z,22.10
2019-05-07T02:28:32.924Z,17.35
2019-05-07T02:31:04.133Z,16.05
2019-05-07T02:33:34.846Z,14.63
2019-05-07T02:36:02.995Z,14.18
2019-05-07T02:38:35.993Z,19.48
2019-05-07T02:41:14.218Z,17.70
2019-05-07T02:43:43.142Z,20.15
2019-05-07T02:46:31.942Z,15.18
2019-05-07T02:49:03.144Z,18.67
2019-05-07T02:51:33.821Z,16.40
2019-05-07T02:54:13.228Z,15.93
2019-05-07T02:56:43.233Z,18.23
2019-05-07T02:59:13.729Z,13.35
2019-05-07T03:01:43.276Z,17.32
2019-05-07T03:04:12.952Z,16.70
2019-05-07T03:06:44.174Z,12.73
2019-05-07T03:09:14.555Z,16.93
2019-05-07T03:11:43.593Z,15.72
2019-05-07T03:14:13.923Z,13.62
2019-05-07T03:16:47.447Z,13.45
2019-05-07T03:19:13.298Z,13.70
2019-05-07T03:21:55.348Z,16.82
2019-05-07T03:24:29.749Z,17.55
2019-05-07T03:27:02.858Z,15.95
2019-05-07T03:29:32.998Z,15.38
2019-05-07T03:32:18.177Z,15.53
2019-05-07T03:34:48.459Z,13.83
2019-05-07T03:37:18.644Z,16.05
2019-05-07T03:39:47.265Z,16.15
2019-05-07T03:42:15.835Z,17.15
2019-05-07T03:44:53.666Z,16.30
2019-05-07T03:47:29.314Z,15.03
2019-05-07T03:49:57.915Z,15.93
2019-05-07T03:52:26.476Z,21.70
2019-05-07T03:54:55.012Z,13.38
2019-05-07T03:57:24.013Z,17.70
2019-05-07T03:59:54.229Z,19.80
2019-05-07T04:02:23.820Z,14.58
2019-05-07T04:04:53.123Z,15.40
2019-05-07T04:07:23.504Z,14.63
2019-05-07T04:09:53.486Z,19.20
2019-05-07T04:12:23.946Z,15.30
2019-05-07T04:14:54.531Z,14.20
2019-05-07T04:17:26.669Z,14.85
2019-05-07T04:19:53.470Z,16.25
2019-05-07T04:22:26.444Z,14.78
2019-05-07T04:24:54.746Z,18.67
2019-05-07T04:27:36.738Z,19.33
2019-05-07T04:30:08.514Z,16.52
2019-05-07T04:32:38.730Z,12.98
2019-05-07T04:35:09.178Z,14.80
2019-05-07T04:37:37.658Z,18.20
2019-05-07T04:40:06.774Z,13.28
2019-05-07T04:42:35.342Z,12.70
2019-05-07T04:45:06.051Z,14.13
2019-05-07T04:47:43.258Z,13.72
2019-05-07T04:50:13.651Z,14.75
2019-05-07T04:52:43.681Z,13.58
2019-05-07T04:55:13.811Z,11.68
2019-05-07T04:57:43.855Z,17.25
2019-05-07T05:00:13.582Z,13.50
2019-05-07T05:02:56.096Z,13.65
2019-05-07T05:05:25.467Z,21.65
2019-05-07T05:07:54.005Z,12.98
2019-05-07T05:10:23.225Z,15.93
2019-05-07T05:12:53.697Z,12.30
2019-05-07T05:15:22.643Z,12.00
2019-05-07T05:17:53.873Z,14.73
2019-05-07T05:20:23.218Z,12.50
2019-05-07T05:23:05.331Z,14.33
2019-05-07T05:25:35.581Z,14.33
2019-05-07T05:28:04.378Z,11.83
2019-05-07T05:30:34.625Z,11.55
2019-05-07T05:33:04.374Z,12.15
2019-05-07T05:35:33.530Z,14.50
2019-05-07T05:38:03.100Z,14.90
2019-05-07T05:40:32.113Z,13.75
2019-05-07T05:43:08.095Z,15.30
2019-05-07T05:45:38.671Z,11.80
2019-05-07T05:48:08.648Z,11.85
2019-05-07T05:50:39.014Z,11.78
2019-05-07T05:53:15.102Z,11.30
2019-05-07T05:55:44.295Z,10.32
2019-05-07T05:58:17.219Z,12.73
2019-05-07T06:00:52.978Z,18.15
2019-05-07T06:03:23.835Z,12.33
2019-05-07T06:05:56.728Z,17.02
2019-05-07T06:08:39.015Z,14.68
2019-05-07T06:11:21.909Z,18.57
2019-05-07T06:13:52.756Z,15.63
2019-05-07T06:16:22.957Z,15.40
2019-05-07T06:18:55.934Z,10.35
2019-05-07T06:21:42.625Z,9.58
2019-05-07T06:24:15.479Z,11.43
2019-05-07T06:26:44.083Z,11.48
2019-05-07T06:29:12.842Z,12.43
2019-05-07T06:31:42.181Z,10.95
2019-05-07T06:34:12.435Z,12.20
2019-05-07T06:36:42.460Z,12.60
2019-05-07T06:39:15.405Z,10.03
2019-05-07T06:42:03.245Z,16.62
2019-05-07T06:44:32.567Z,13.80
2019-05-07T06:47:02.482Z,9.08
2019-05-07T06:49:32.434Z,11.35
2019-05-07T06:52:03.042Z,17.07
2019-05-07T06:54:32.174Z,14.13
2019-05-07T06:57:02.053Z,9.28
2019-05-07T06:59:34.791Z,10.95
2019-05-07T07:02:22.514Z,11.30
2019-05-07T07:04:53.263Z,10.05
2019-05-07T07:07:32.323Z,13.55
2019-05-07T07:10:02.682Z,11.68
2019-05-07T07:12:33.872Z,13.13
2019-05-07T07:15:02.844Z,11.80
2019-05-07T07:17:32.619Z,10.55
2019-05-07T07:20:02.367Z,10.70
2019-05-07T07:22:31.931Z,10.55
2019-05-07T07:25:02.914Z,11.08
2019-05-07T07:27:32.243Z,14.38
2019-05-07T07:30:02.738Z,10.38
2019-05-07T07:32:33.010Z,15.10
2019-05-07T07:35:02.388Z,15.75
2019-05-07T07:37:43.011Z,9.38
2019-05-07T07:40:15.399Z,11.45
2019-05-07T07:42:44.044Z,10.53
2019-05-07T07:45:19.601Z,10.45
2019-05-07T07:47:48.388Z,11.25
2019-05-07T07:50:18.567Z,10.90
2019-05-07T07:52:47.160Z,14.98
2019-05-07T07:55:17.940Z,14.07
2019-05-07T07:57:52.086Z,13.53
2019-05-07T08:00:23.372Z,16.17
2019-05-07T08:02:56.775Z,13.48
2019-05-07T08:05:25.248Z,11.73
2019-05-07T08:07:53.902Z,14.13
2019-05-07T08:10:22.465Z,9.08
2019-05-07T08:12:52.583Z,16.20
2019-05-07T08:15:24.464Z,8.73
2019-05-07T08:17:52.232Z,16.60
2019-05-07T08:20:22.272Z,9.55
2019-05-07T08:22:52.635Z,12.28
2019-05-07T08:25:23.243Z,16.93
2019-05-07T08:27:52.455Z,15.78
2019-05-07T08:30:23.408Z,10.32
2019-05-07T08:32:56.456Z,13.53
2019-05-07T08:35:26.705Z,18.07
2019-05-07T08:37:55.272Z,12.80
2019-05-07T08:40:23.802Z,13.93
2019-05-07T08:42:53.115Z,10.53
2019-05-07T08:45:39.693Z,19.17
2019-05-07T08:48:12.480Z,12.90
2019-05-07T08:50:41.914Z,12.13
2019-05-07T08:53:13.040Z,15.72
2019-05-07T08:55:42.453Z,10.15
2019-05-07T08:58:12.053Z,10.48
2019-05-07T09:00:41.808Z,10.68
2019-05-07T09:03:20.060Z,11.45
2019-05-07T09:05:42.631Z,13.38
2019-05-07T09:08:12.870Z,11.33
2019-05-07T09:10:42.293Z,10.90
2019-05-07T09:13:12.584Z,10.05
2019-05-07T09:15:42.510Z,13.48
2019-05-07T09:18:12.374Z,13.98
2019-05-07T09:20:42.543Z,19.52
2019-05-07T09:23:12.239Z,11.53
2019-05-07T09:25:42.646Z,13.13
2019-05-07T09:28:11.877Z,10.20
2019-05-07T09:30:58.717Z,14.33
2019-05-07T09:33:28.965Z,13.62
2019-05-07T09:35:57.523Z,12.40
2019-05-07T09:38:26.125Z,13.85
2019-05-07T09:40:57.011Z,14.50
2019-05-07T09:43:25.281Z,14.15
2019-05-07T09:45:53.874Z,11.97
2019-05-07T09:48:22.483Z,13.75
2019-05-07T09:50:53.017Z,12.25
2019-05-07T09:53:22.820Z,13.40
2019-05-07T09:55:51.699Z,14.05
2019-05-07T09:58:34.860Z,16.73
2019-05-07T10:00:51.978Z,11.90
2019-05-07T10:03:22.678Z,18.12
2019-05-07T10:05:52.708Z,14.13
2019-05-07T10:08:21.553Z,15.60
2019-05-07T10:10:53.085Z,10.93
2019-05-07T10:13:25.168Z,10.65
2019-05-07T10:15:53.770Z,11.78
2019-05-07T10:18:22.873Z,10.98
2019-05-07T10:20:52.235Z,15.45
2019-05-07T10:23:22.971Z,12.10
2019-05-07T10:25:52.804Z,10.63
2019-05-07T10:28:22.756Z,12.68
2019-05-07T10:30:52.269Z,11.28
2019-05-07T10:33:22.900Z,11.45
2019-05-07T10:35:52.919Z,10.35
2019-05-07T10:38:22.216Z,12.63
2019-05-07T10:40:53.616Z,10.30
2019-05-07T10:43:23.140Z,10.65
2019-05-07T10:45:53.690Z,11.88
2019-05-07T10:48:31.880Z,11.55
2019-05-07T10:51:08.888Z,10.78
2019-05-07T10:53:37.524Z,8.68
2019-05-07T10:56:06.129Z,8.58
2019-05-07T10:58:34.745Z,11.48
2019-05-07T11:01:03.408Z,8.65
2019-05-07T11:03:32.535Z,11.48
2019-05-07T11:06:01.323Z,11.73
2019-05-07T11:08:30.003Z,10.82
2019-05-07T11:10:58.557Z,12.40
2019-05-07T11:13:27.177Z,12.15
2019-05-07T11:16:03.468Z,10.63
2019-05-07T11:18:39.489Z,15.78
2019-05-07T11:21:08.099Z,17.42
2019-05-07T11:23:36.683Z,12.53
2019-05-07T11:26:05.305Z,10.63
2019-05-07T11:28:33.907Z,10.63
2019-05-07T11:31:02.540Z,10.48
2019-05-07T11:33:32.603Z,13.62
2019-05-07T11:36:02.104Z,10.72
2019-05-07T11:38:33.125Z,9.83
2019-05-07T11:41:02.302Z,10.23
2019-05-07T11:43:48.123Z,9.55
2019-05-07T11:46:34.841Z,11.33
2019-05-07T11:49:14.035Z,9.50
2019-05-07T11:51:44.277Z,10.48
2019-05-07T11:54:16.031Z,10.28
2019-05-07T11:56:44.642Z,13.78
2019-05-07T11:59:13.626Z,12.33
2019-05-07T12:01:47.447Z,11.95
2019-05-07T12:04:17.429Z,12.60
2019-05-07T12:06:46.036Z,10.50
2019-05-07T12:09:14.578Z,11.00
2019-05-07T12:11:43.277Z,11.65
2019-05-07T12:14:12.357Z,11.65
2019-05-07T12:16:42.534Z,12.13
2019-05-07T12:19:13.024Z,14.03
2019-05-07T12:21:42.324Z,10.93
2019-05-07T12:24:12.547Z,11.80
2019-05-07T12:26:42.900Z,12.43
2019-05-07T12:29:11.944Z,11.05
2019-05-07T12:31:42.597Z,14.45
2019-05-07T12:34:19.373Z,10.90
2019-05-07T12:36:47.914Z,10.48
2019-05-07T12:39:16.578Z,11.60
2019-05-07T12:41:45.210Z,15.13
2019-05-07T12:44:13.817Z,12.58
2019-05-07T12:46:42.584Z,16.77
2019-05-07T12:49:11.958Z,11.60
2019-05-07T12:51:51.684Z,15.58
2019-05-07T12:54:22.706Z,15.28
2019-05-07T12:56:52.073Z,16.48
2019-05-07T12:59:21.898Z,11.45
2019-05-07T13:01:58.734Z,13.50
2019-05-07T13:04:32.510Z,16.87
2019-05-07T13:07:03.099Z,11.12
2019-05-07T13:09:32.501Z,13.65
2019-05-07T13:12:03.056Z,15.45
2019-05-07T13:14:31.558Z,14.10
2019-05-07T13:17:00.162Z,14.70
2019-05-07T13:19:28.905Z,15.23
2019-05-07T13:21:57.646Z,12.07
2019-05-07T13:24:26.247Z,10.70
2019-05-07T13:26:54.822Z,14.98
2019-05-07T13:29:23.428Z,17.02
2019-05-07T13:31:55.002Z,12.37
2019-05-07T13:34:23.867Z,13.00
2019-05-07T13:36:57.402Z,10.35
2019-05-07T13:39:32.525Z,12.18
2019-05-07T13:42:05.878Z,14.83
2019-05-07T13:44:36.459Z,8.88
2019-05-07T13:47:22.861Z,9.73
2019-05-07T13:49:53.738Z,9.35
2019-05-07T13:52:24.108Z,10.08
2019-05-07T13:54:53.741Z,10.32
2019-05-07T13:57:23.371Z,11.80
2019-05-07T13:59:53.043Z,13.28
2019-05-07T14:02:24.245Z,13.28
2019-05-07T14:04:53.468Z,16.32
2019-05-07T14:07:22.836Z,14.20
2019-05-07T14:09:52.702Z,12.37
2019-05-07T14:12:22.925Z,15.40
2019-05-07T14:14:53.048Z,12.55
2019-05-07T14:17:22.092Z,22.20
2019-05-07T14:19:52.878Z,11.88
2019-05-07T14:22:22.597Z,11.22
2019-05-07T14:24:53.111Z,13.78
2019-05-07T14:27:22.008Z,18.42
2019-05-07T14:29:52.086Z,16.77
2019-05-07T14:32:28.818Z,15.43
2019-05-07T14:35:05.058Z,10.18
2019-05-07T14:37:35.302Z,18.85
2019-05-07T14:40:05.730Z,13.65
2019-05-07T14:42:45.249Z,19.10
2019-05-07T14:45:15.081Z,12.23
2019-05-07T14:47:46.024Z,16.20
2019-05-07T14:50:15.339Z,12.55
2019-05-07T14:52:43.948Z,13.55
2019-05-07T14:55:13.234Z,14.63
2019-05-07T14:57:42.194Z,14.68
2019-05-07T15:00:12.212Z,18.45
2019-05-07T15:02:42.127Z,14.05
2019-05-07T15:05:11.985Z,12.30
2019-05-07T15:07:42.211Z,11.73
2019-05-07T15:10:11.031Z,17.05
2019-05-07T15:12:39.641Z,13.48
2019-05-07T15:15:08.861Z,21.30
2019-05-07T15:17:42.133Z,19.27
2019-05-07T15:20:11.423Z,20.52
2019-05-07T15:22:49.061Z,26.45
2019-05-07T15:25:14.507Z,14.50
2019-05-07T15:27:45.397Z,16.55
2019-05-07T15:30:14.706Z,19.23
2019-05-07T15:32:43.316Z,30.37
2019-05-07T15:35:12.682Z,18.45
2019-05-07T15:37:42.733Z,24.00
2019-05-07T15:40:11.946Z,16.02
2019-05-07T15:42:42.132Z,15.78
2019-05-07T15:45:12.513Z,14.60
2019-05-07T15:47:43.327Z,15.53
2019-05-07T15:50:12.548Z,10.38
2019-05-07T15:52:43.395Z,13.05
2019-05-07T15:55:12.027Z,10.98
2019-05-07T15:57:42.673Z,21.73
2019-05-07T16:00:14.083Z,11.33
2019-05-07T16:02:45.379Z,19.77
2019-05-07T16:05:15.031Z,13.32
2019-05-07T16:07:45.209Z,15.85
2019-05-07T16:10:15.163Z,11.95
2019-05-07T16:12:44.380Z,18.17
2019-05-07T16:15:13.903Z,12.30
2019-05-07T16:17:52.159Z,14.60
2019-05-07T16:20:22.700Z,17.02
2019-05-07T16:23:13.937Z,14.30
2019-05-07T16:25:33.422Z,18.27
2019-05-07T16:28:04.745Z,13.13
2019-05-07T16:30:32.553Z,13.83
2019-05-07T16:33:02.148Z,15.98
2019-05-07T16:35:32.003Z,15.18
2019-05-07T16:38:00.968Z,19.35
2019-05-07T16:40:29.571Z,16.82
2019-05-07T16:42:58.180Z,14.98
2019-05-07T16:45:26.797Z,15.88
2019-05-07T16:47:55.326Z,15.50
2019-05-07T16:50:23.923Z,12.43
2019-05-07T16:52:52.649Z,12.33
2019-05-07T16:55:23.145Z,14.13
2019-05-07T16:57:58.829Z,12.68
2019-05-07T17:00:38.125Z,11.80
2019-05-07T17:03:08.387Z,14.35
2019-05-07T17:05:37.003Z,18.75
2019-05-07T17:08:07.247Z,17.73
2019-05-07T17:10:36.012Z,14.80
2019-05-07T17:13:04.644Z,11.57
2019-05-07T17:15:37.629Z,17.17
2019-05-07T17:18:06.239Z,15.55
2019-05-07T17:20:34.902Z,16.20
2019-05-07T17:23:03.490Z,18.98
2019-05-07T17:25:37.788Z,20.23
2019-05-07T17:28:08.295Z,22.37
2019-05-07T17:30:38.126Z,23.95
2019-05-07T17:33:07.056Z,24.15
2019-05-07T17:35:35.614Z,21.65
2019-05-07T17:38:07.224Z,21.23
2019-05-07T17:40:34.885Z,17.48
2019-05-07T17:43:03.554Z,20.23
2019-05-07T17:45:32.927Z,19.67
2019-05-07T17:48:03.161Z,18.77
2019-05-07T17:50:49.460Z,20.27
2019-05-07T17:53:18.076Z,17.57
2019-05-07T17:55:46.642Z,17.55
2019-05-07T17:58:15.236Z,19.40
2019-05-07T18:00:46.287Z,25.32
2019-05-07T18:03:22.555Z,21.17
2019-05-07T18:05:51.933Z,27.48
2019-05-07T18:08:21.753Z,25.25
2019-05-07T18:10:50.505Z,23.70
2019-05-07T18:13:19.039Z,24.75
2019-05-07T18:15:47.674Z,25.37
2019-05-07T18:18:16.895Z,21.85
2019-05-07T18:20:45.532Z,24.52
2019-05-07T18:23:16.830Z,26.00
2019-05-07T18:25:44.581Z,25.95
2019-05-07T18:28:13.184Z,58.80
2019-05-07T18:30:41.804Z,53.78
2019-05-07T18:33:15.046Z,49.53
2019-05-07T18:35:46.161Z,51.75
2019-05-07T18:38:14.775Z,65.60
2019-05-07T18:40:43.375Z,61.83
2019-05-07T18:43:12.358Z,52.93
2019-05-07T18:45:41.130Z,71.92
2019-05-07T18:48:11.766Z,98.35
2019-05-07T18:50:41.959Z,122.80
2019-05-07T18:53:12.176Z,109.87
2019-05-07T18:55:42.355Z,107.85
2019-05-07T18:58:13.187Z,99.52
2019-05-07T19:00:43.285Z,85.97
2019-05-07T19:03:11.901Z,63.55
2019-05-07T19:05:42.451Z,69.72
2019-05-07T19:08:12.607Z,58.52
2019-05-07T19:10:42.893Z,44.63
2019-05-07T19:13:11.902Z,44.75
2019-05-07T19:15:42.002Z,46.18
2019-05-07T19:18:12.047Z,32.78
2019-05-07T19:20:42.166Z,39.25
2019-05-07T19:23:10.902Z,28.32
2019-05-07T19:25:41.555Z,25.95
2019-05-07T19:28:12.763Z,26.17
2019-05-07T19:30:42.022Z,21.12
2019-05-07T19:33:12.332Z,23.83
2019-05-07T19:35:41.854Z,26.80
2019-05-07T19:38:10.796Z,20.00
2019-05-07T19:40:39.395Z,26.23
2019-05-07T19:43:08.067Z,20.12
2019-05-07T19:45:36.577Z,22.60
2019-05-07T19:48:05.417Z,20.23
2019-05-07T19:50:34.024Z,21.05
2019-05-07T19:53:03.002Z,21.42
2019-05-07T19:55:33.398Z,23.45
2019-05-07T19:58:03.647Z,25.95
2019-05-07T20:00:32.779Z,30.68
2019-05-07T20:03:03.384Z,36.88
2019-05-07T20:05:32.727Z,47.33
2019-05-07T20:08:04.470Z,52.65
2019-05-07T20:10:33.675Z,40.70
2019-05-07T20:13:03.136Z,47.25
2019-05-07T20:15:32.710Z,41.90
2019-05-07T20:18:03.145Z,28.90
2019-05-07T20:20:33.142Z,34.80
2019-05-07T20:23:02.584Z,36.10
2019-05-07T20:25:33.204Z,36.33
2019-05-07T20:28:02.261Z,33.28
2019-05-07T20:30:32.482Z,31.42
2019-05-07T20:33:03.070Z,33.10
2019-05-07T20:35:32.545Z,30.92
2019-05-07T20:38:02.943Z,34.67
2019-05-07T20:40:32.470Z,36.40
2019-05-07T20:43:01.918Z,67.15
2019-05-07T20:45:32.060Z,59.00
2019-05-07T20:48:02.525Z,65.60
2019-05-07T20:50:33.239Z,58.80
2019-05-07T20:53:02.216Z,53.70
2019-05-07T20:55:35.286Z,39.63
2019-05-07T20:58:03.964Z,42.93
2019-05-07T21:00:32.775Z,37.70
2019-05-07T21:03:19.016Z,31.57
2019-05-07T21:05:53.133Z,30.88
2019-05-07T21:08:22.681Z,31.75
2019-05-07T21:10:53.536Z,28.50
2019-05-07T21:13:28.474Z,32.67
2019-05-07T21:15:53.040Z,36.53
2019-05-07T21:18:23.354Z,35.48
2019-05-07T21:20:52.908Z,42.88
2019-05-07T21:23:23.126Z,32.25
2019-05-07T21:25:52.831Z,33.80
2019-05-07T21:28:21.896Z,33.13
2019-05-07T21:30:52.157Z,29.63
2019-05-07T21:33:22.951Z,27.70
2019-05-07T21:35:53.061Z,27.55
2019-05-07T21:38:22.390Z,27.32
2019-05-07T21:40:51.519Z,29.63
2019-05-07T21:43:22.138Z,33.92
2019-05-07T21:45:52.995Z,66.42
2019-05-07T21:48:22.294Z,52.43
2019-05-07T21:50:52.005Z,44.05
2019-05-07T21:53:32.423Z,31.20
2019-05-07T21:56:05.439Z,30.48
2019-05-07T21:58:47.009Z,27.35
2019-05-07T22:01:17.503Z,26.15
2019-05-07T22:03:48.053Z,29.23
2019-05-07T22:06:16.665Z,38.88
2019-05-07T22:08:45.298Z,70.00
2019-05-07T22:11:14.004Z,70.37
2019-05-07T22:13:43.570Z,61.20
2019-05-07T22:16:12.965Z,53.55
2019-05-07T22:18:42.759Z,47.08
2019-05-07T22:21:12.459Z,37.73
2019-05-07T22:23:42.776Z,32.65
2019-05-07T22:26:20.192Z,28.70
2019-05-07T22:28:42.293Z,26.95
2019-05-07T22:31:18.350Z,21.10
2019-05-07T22:33:52.807Z,29.70
2019-05-07T22:36:22.101Z,28.92
2019-05-07T22:38:52.670Z,27.05
2019-05-07T22:41:22.456Z,30.65
2019-05-07T22:43:51.211Z,27.27
2019-05-07T22:46:22.098Z,24.55
2019-05-07T22:48:50.155Z,24.65
2019-05-07T22:51:19.012Z,25.25
2019-05-07T22:53:47.544Z,26.07
2019-05-07T22:56:16.423Z,27.32
2019-05-07T22:58:46.550Z,31.93
2019-05-07T23:01:16.702Z,28.60
2019-05-07T23:03:45.303Z,25.85
2019-05-07T23:06:13.919Z,30.72
2019-05-07T23:08:44.053Z,40.70
2019-05-07T23:11:12.664Z,39.03
2019-05-07T23:13:42.676Z,53.40
2019-05-07T23:16:12.604Z,47.95
2019-05-07T23:18:42.893Z,40.67
2019-05-07T23:21:11.816Z,30.27
2019-05-07T23:23:42.219Z,30.90
2019-05-07T23:26:12.264Z,25.62
2019-05-07T23:28:41.900Z,25.57
2019-05-07T23:31:12.133Z,28.98
2019-05-07T23:33:40.926Z,44.00
2019-05-07T23:36:09.539Z,39.03
2019-05-07T23:38:38.092Z,30.20
2019-05-07T23:41:08.336Z,28.45
2019-05-07T23:43:37.018Z,31.95
2019-05-07T23:46:05.649Z,24.07
2019-05-07T23:48:34.291Z,24.25
2019-05-07T23:51:02.771Z,25.80
2019-05-07T23:53:31.361Z,18.60
2019-05-07T23:55:59.972Z,21.70
2019-05-07T23:58:28.495Z,18.50
